sensor_id;sensor_type;location;lat;lon;timestamp;temperature;humidity
52947;DHT22;68773;40.400;17.260;2023-07-29T00:01:44;24.30;96.60
52947;DHT22;68773;40.400;17.260;2023-07-29T00:04:11;24.30;96.80
52947;DHT22;68773;40.400;17.260;2023-07-29T00:06:37;24.20;97.10
52947;DHT22;68773;40.400;17.260;2023-07-29T00:09:03;24.30;97.10
52947;DHT22;68773;40.400;17.260;2023-07-29T00:11:28;24.20;97.30
52947;DHT22;68773;40.400;17.260;2023-07-29T00:13:54;24.20;97.50
52947;DHT22;68773;40.400;17.260;2023-07-29T00:16:20;24.20;97.50
52947;DHT22;68773;40.400;17.260;2023-07-29T00:18:49;24.20;97.30
52947;DHT22;68773;40.400;17.260;2023-07-29T00:21:15;24.10;97.50
52947;DHT22;68773;40.400;17.260;2023-07-29T00:23:40;24.00;97.60
52947;DHT22;68773;40.400;17.260;2023-07-29T00:26:06;24.00;97.80
52947;DHT22;68773;40.400;17.260;2023-07-29T00:28:32;24.00;98.00
52947;DHT22;68773;40.400;17.260;2023-07-29T00:30:58;24.00;98.30
52947;DHT22;68773;40.400;17.260;2023-07-29T00:33:23;24.10;98.50
52947;DHT22;68773;40.400;17.260;2023-07-29T00:35:49;24.00;98.30
52947;DHT22;68773;40.400;17.260;2023-07-29T00:38:15;24.00;98.30
52947;DHT22;68773;40.400;17.260;2023-07-29T00:40:43;24.00;98.30
52947;DHT22;68773;40.400;17.260;2023-07-29T00:43:09;24.00;98.50
52947;DHT22;68773;40.400;17.260;2023-07-29T00:45:35;24.00;98.80
52947;DHT22;68773;40.400;17.260;2023-07-29T00:48:02;23.90;99.00
52947;DHT22;68773;40.400;17.260;2023-07-29T00:50:29;23.90;99.20
52947;DHT22;68773;40.400;17.260;2023-07-29T00:52:56;24.00;99.30
52947;DHT22;68773;40.400;17.260;2023-07-29T00:55:22;24.00;99.40
52947;DHT22;68773;40.400;17.260;2023-07-29T00:57:48;24.00;99.40
52947;DHT22;68773;40.400;17.260;2023-07-29T01:00:17;24.00;99.50
52947;DHT22;68773;40.400;17.260;2023-07-29T01:02:43;24.10;99.60
52947;DHT22;68773;40.400;17.260;2023-07-29T01:05:12;24.10;99.90
52947;DHT22;68773;40.400;17.260;2023-07-29T01:15:55;24.20;99.90
52947;DHT22;68773;40.400;17.260;2023-07-29T01:18:28;24.30;99.90
52947;DHT22;68773;40.400;17.260;2023-07-29T01:21:00;24.30;99.90
52947;DHT22;68773;40.400;17.260;2023-07-29T01:23:32;24.30;99.90
52947;DHT22;68773;40.400;17.260;2023-07-29T01:25:58;24.40;99.90
52947;DHT22;68773;40.400;17.260;2023-07-29T01:28:24;24.40;99.90
52947;DHT22;68773;40.400;17.260;2023-07-29T01:30:57;24.50;99.90
52947;DHT22;68773;40.400;17.260;2023-07-29T01:33:26;24.60;99.90
52947;DHT22;68773;40.400;17.260;2023-07-29T01:36:01;24.70;99.90
52947;DHT22;68773;40.400;17.260;2023-07-29T01:38:36;24.70;99.90
52947;DHT22;68773;40.400;17.260;2023-07-29T01:41:04;24.70;99.90
52947;DHT22;68773;40.400;17.260;2023-07-29T01:43:32;24.70;99.90
52947;DHT22;68773;40.400;17.260;2023-07-29T01:45:58;24.80;99.80
52947;DHT22;68773;40.400;17.260;2023-07-29T01:48:24;24.80;99.70
52947;DHT22;68773;40.400;17.260;2023-07-29T01:50:50;24.80;99.80
52947;DHT22;68773;40.400;17.260;2023-07-29T01:53:16;24.80;99.80
52947;DHT22;68773;40.400;17.260;2023-07-29T01:55:43;24.80;99.90
52947;DHT22;68773;40.400;17.260;2023-07-29T01:58:10;24.80;99.90
52947;DHT22;68773;40.400;17.260;2023-07-29T02:00:36;24.90;99.90
52947;DHT22;68773;40.400;17.260;2023-07-29T02:03:02;24.80;99.90
52947;DHT22;68773;40.400;17.260;2023-07-29T02:05:27;24.80;99.90
52947;DHT22;68773;40.400;17.260;2023-07-29T02:07:53;24.70;99.90
52947;DHT22;68773;40.400;17.260;2023-07-29T02:10:19;24.80;99.90
52947;DHT22;68773;40.400;17.260;2023-07-29T02:12:44;24.80;99.90
52947;DHT22;68773;40.400;17.260;2023-07-29T02:15:10;24.80;99.90
52947;DHT22;68773;40.400;17.260;2023-07-29T02:17:36;24.70;99.90
52947;DHT22;68773;40.400;17.260;2023-07-29T02:20:03;24.60;99.90
52947;DHT22;68773;40.400;17.260;2023-07-29T02:22:29;24.60;99.90
52947;DHT22;68773;40.400;17.260;2023-07-29T02:24:55;24.60;99.90
52947;DHT22;68773;40.400;17.260;2023-07-29T02:27:21;24.60;99.90
52947;DHT22;68773;40.400;17.260;2023-07-29T02:29:46;24.70;99.90
52947;DHT22;68773;40.400;17.260;2023-07-29T02:32:12;24.70;99.90
52947;DHT22;68773;40.400;17.260;2023-07-29T02:34:38;24.70;99.90
52947;DHT22;68773;40.400;17.260;2023-07-29T02:37:04;24.70;99.90
52947;DHT22;68773;40.400;17.260;2023-07-29T02:39:30;24.70;99.90
52947;DHT22;68773;40.400;17.260;2023-07-29T02:41:56;24.80;99.90
52947;DHT22;68773;40.400;17.260;2023-07-29T02:44:24;24.80;99.90
52947;DHT22;68773;40.400;17.260;2023-07-29T02:46:49;24.70;99.90
52947;DHT22;68773;40.400;17.260;2023-07-29T02:49:17;24.70;99.90
52947;DHT22;68773;40.400;17.260;2023-07-29T02:51:43;24.70;99.90
52947;DHT22;68773;40.400;17.260;2023-07-29T02:54:09;24.70;99.90
52947;DHT22;68773;40.400;17.260;2023-07-29T02:56:34;24.70;99.90
52947;DHT22;68773;40.400;17.260;2023-07-29T02:59:00;24.80;99.90
52947;DHT22;68773;40.400;17.260;2023-07-29T03:01:26;24.70;99.90
52947;DHT22;68773;40.400;17.260;2023-07-29T03:03:52;24.80;99.90
52947;DHT22;68773;40.400;17.260;2023-07-29T03:06:18;24.70;99.90
52947;DHT22;68773;40.400;17.260;2023-07-29T03:08:44;24.70;99.90
52947;DHT22;68773;40.400;17.260;2023-07-29T03:11:13;24.70;99.90
52947;DHT22;68773;40.400;17.260;2023-07-29T03:13:39;24.70;99.90
52947;DHT22;68773;40.400;17.260;2023-07-29T03:16:12;24.70;99.90
52947;DHT22;68773;40.400;17.260;2023-07-29T03:18:43;24.70;99.90
52947;DHT22;68773;40.400;17.260;2023-07-29T03:21:09;24.60;99.90
52947;DHT22;68773;40.400;17.260;2023-07-29T03:23:35;24.60;99.90
52947;DHT22;68773;40.400;17.260;2023-07-29T03:26:02;24.50;99.90
52947;DHT22;68773;40.400;17.260;2023-07-29T03:28:36;24.50;99.90
52947;DHT22;68773;40.400;17.260;2023-07-29T03:31:02;24.50;99.90
52947;DHT22;68773;40.400;17.260;2023-07-29T03:33:28;24.30;99.90
52947;DHT22;68773;40.400;17.260;2023-07-29T03:35:54;24.20;99.90
52947;DHT22;68773;40.400;17.260;2023-07-29T03:38:19;24.20;99.90
52947;DHT22;68773;40.400;17.260;2023-07-29T03:40:45;24.20;99.90
52947;DHT22;68773;40.400;17.260;2023-07-29T03:43:11;24.30;99.90
52947;DHT22;68773;40.400;17.260;2023-07-29T03:45:37;24.30;99.90
52947;DHT22;68773;40.400;17.260;2023-07-29T03:48:04;24.20;99.90
52947;DHT22;68773;40.400;17.260;2023-07-29T03:50:30;24.20;99.90
52947;DHT22;68773;40.400;17.260;2023-07-29T03:52:56;24.00;99.90
52947;DHT22;68773;40.400;17.260;2023-07-29T03:55:22;24.00;99.90
52947;DHT22;68773;40.400;17.260;2023-07-29T03:57:48;24.00;99.90
52947;DHT22;68773;40.400;17.260;2023-07-29T04:00:13;24.10;99.90
52947;DHT22;68773;40.400;17.260;2023-07-29T04:02:40;24.20;99.90
52947;DHT22;68773;40.400;17.260;2023-07-29T04:05:07;24.20;99.90
52947;DHT22;68773;40.400;17.260;2023-07-29T04:07:35;24.20;99.90
52947;DHT22;68773;40.400;17.260;2023-07-29T04:10:01;24.30;99.90
52947;DHT22;68773;40.400;17.260;2023-07-29T04:12:28;24.30;99.90
52947;DHT22;68773;40.400;17.260;2023-07-29T04:14:53;24.20;99.90
52947;DHT22;68773;40.400;17.260;2023-07-29T04:17:19;24.30;99.90
52947;DHT22;68773;40.400;17.260;2023-07-29T04:19:45;24.40;99.90
52947;DHT22;68773;40.400;17.260;2023-07-29T04:22:10;24.40;99.90
52947;DHT22;68773;40.400;17.260;2023-07-29T04:24:37;24.50;99.90
52947;DHT22;68773;40.400;17.260;2023-07-29T04:27:03;24.60;99.90
52947;DHT22;68773;40.400;17.260;2023-07-29T04:29:29;24.60;99.90
52947;DHT22;68773;40.400;17.260;2023-07-29T04:31:55;24.50;99.90
52947;DHT22;68773;40.400;17.260;2023-07-29T04:34:21;24.60;99.90
52947;DHT22;68773;40.400;17.260;2023-07-29T04:36:47;24.60;99.90
52947;DHT22;68773;40.400;17.260;2023-07-29T04:39:13;24.70;99.90
52947;DHT22;68773;40.400;17.260;2023-07-29T04:41:38;24.70;99.90
52947;DHT22;68773;40.400;17.260;2023-07-29T04:44:04;24.60;99.90
52947;DHT22;68773;40.400;17.260;2023-07-29T04:46:30;24.60;99.90
52947;DHT22;68773;40.400;17.260;2023-07-29T04:48:55;24.60;99.90
52947;DHT22;68773;40.400;17.260;2023-07-29T04:51:21;24.60;99.90
52947;DHT22;68773;40.400;17.260;2023-07-29T04:53:47;24.50;99.90
52947;DHT22;68773;40.400;17.260;2023-07-29T04:56:13;24.50;99.90
52947;DHT22;68773;40.400;17.260;2023-07-29T04:58:39;24.50;99.90
52947;DHT22;68773;40.400;17.260;2023-07-29T05:01:04;24.50;99.90
52947;DHT22;68773;40.400;17.260;2023-07-29T05:03:30;24.40;99.90
52947;DHT22;68773;40.400;17.260;2023-07-29T05:05:57;24.60;99.90
52947;DHT22;68773;40.400;17.260;2023-07-29T05:08:23;24.70;99.90
52947;DHT22;68773;40.400;17.260;2023-07-29T05:10:50;24.90;99.90
52947;DHT22;68773;40.400;17.260;2023-07-29T05:13:16;25.00;99.90
52947;DHT22;68773;40.400;17.260;2023-07-29T05:15:42;25.00;99.60
52947;DHT22;68773;40.400;17.260;2023-07-29T05:18:07;25.10;99.70
52947;DHT22;68773;40.400;17.260;2023-07-29T05:20:33;25.20;99.20
52947;DHT22;68773;40.400;17.260;2023-07-29T05:22:59;25.30;98.60
52947;DHT22;68773;40.400;17.260;2023-07-29T05:25:26;25.20;98.60
52947;DHT22;68773;40.400;17.260;2023-07-29T05:27:51;25.20;98.50
52947;DHT22;68773;40.400;17.260;2023-07-29T05:30:17;25.20;98.40
52947;DHT22;68773;40.400;17.260;2023-07-29T05:32:43;25.20;98.20
52947;DHT22;68773;40.400;17.260;2023-07-29T05:35:08;25.40;96.80
52947;DHT22;68773;40.400;17.260;2023-07-29T05:37:37;25.40;95.40
52947;DHT22;68773;40.400;17.260;2023-07-29T05:40:03;25.50;95.20
52947;DHT22;68773;40.400;17.260;2023-07-29T05:42:29;25.40;95.20
52947;DHT22;68773;40.400;17.260;2023-07-29T05:44:55;25.30;95.20
52947;DHT22;68773;40.400;17.260;2023-07-29T05:47:21;25.50;94.10
52947;DHT22;68773;40.400;17.260;2023-07-29T05:49:46;25.60;93.50
52947;DHT22;68773;40.400;17.260;2023-07-29T05:52:12;25.60;93.30
52947;DHT22;68773;40.400;17.260;2023-07-29T05:54:38;25.60;93.20
52947;DHT22;68773;40.400;17.260;2023-07-29T05:57:04;25.80;94.20
52947;DHT22;68773;40.400;17.260;2023-07-29T05:59:30;25.90;94.80
52947;DHT22;68773;40.400;17.260;2023-07-29T06:01:56;26.00;94.40
52947;DHT22;68773;40.400;17.260;2023-07-29T06:04:21;25.90;94.00
52947;DHT22;68773;40.400;17.260;2023-07-29T06:06:47;25.90;94.20
52947;DHT22;68773;40.400;17.260;2023-07-29T06:09:13;25.80;94.00
52947;DHT22;68773;40.400;17.260;2023-07-29T06:11:38;25.80;94.00
52947;DHT22;68773;40.400;17.260;2023-07-29T06:14:04;25.70;94.00
52947;DHT22;68773;40.400;17.260;2023-07-29T06:16:30;25.70;93.50
52947;DHT22;68773;40.400;17.260;2023-07-29T06:18:55;25.70;93.90
52947;DHT22;68773;40.400;17.260;2023-07-29T06:21:21;25.80;93.80
52947;DHT22;68773;40.400;17.260;2023-07-29T06:23:47;25.80;93.30
52947;DHT22;68773;40.400;17.260;2023-07-29T06:26:12;25.80;92.50
52947;DHT22;68773;40.400;17.260;2023-07-29T06:28:38;25.70;92.30
52947;DHT22;68773;40.400;17.260;2023-07-29T06:31:04;25.60;92.40
52947;DHT22;68773;40.400;17.260;2023-07-29T06:33:29;25.60;92.40
52947;DHT22;68773;40.400;17.260;2023-07-29T06:35:55;25.70;92.30
52947;DHT22;68773;40.400;17.260;2023-07-29T06:38:21;25.80;92.00
52947;DHT22;68773;40.400;17.260;2023-07-29T06:40:47;25.60;92.10
52947;DHT22;68773;40.400;17.260;2023-07-29T06:43:13;25.80;92.30
52947;DHT22;68773;40.400;17.260;2023-07-29T06:45:39;25.90;92.20
52947;DHT22;68773;40.400;17.260;2023-07-29T06:48:05;25.90;92.10
52947;DHT22;68773;40.400;17.260;2023-07-29T06:50:30;26.00;91.60
52947;DHT22;68773;40.400;17.260;2023-07-29T06:52:56;26.00;91.60
52947;DHT22;68773;40.400;17.260;2023-07-29T06:55:22;26.00;91.70
52947;DHT22;68773;40.400;17.260;2023-07-29T06:57:47;26.10;91.90
52947;DHT22;68773;40.400;17.260;2023-07-29T07:00:13;26.10;92.00
52947;DHT22;68773;40.400;17.260;2023-07-29T07:02:39;26.10;91.70
52947;DHT22;68773;40.400;17.260;2023-07-29T07:05:05;26.20;91.80
52947;DHT22;68773;40.400;17.260;2023-07-29T07:07:31;26.30;91.80
52947;DHT22;68773;40.400;17.260;2023-07-29T07:09:56;26.20;91.60
52947;DHT22;68773;40.400;17.260;2023-07-29T07:12:22;26.30;91.60
52947;DHT22;68773;40.400;17.260;2023-07-29T07:14:48;26.30;91.40
52947;DHT22;68773;40.400;17.260;2023-07-29T07:17:14;26.30;91.70
52947;DHT22;68773;40.400;17.260;2023-07-29T07:19:39;26.20;91.70
52947;DHT22;68773;40.400;17.260;2023-07-29T07:22:05;26.10;92.10
52947;DHT22;68773;40.400;17.260;2023-07-29T07:24:31;26.10;91.80
52947;DHT22;68773;40.400;17.260;2023-07-29T07:26:56;26.10;92.30
52947;DHT22;68773;40.400;17.260;2023-07-29T07:29:22;26.10;91.90
52947;DHT22;68773;40.400;17.260;2023-07-29T07:31:52;26.20;92.10
52947;DHT22;68773;40.400;17.260;2023-07-29T07:34:19;26.10;92.50
52947;DHT22;68773;40.400;17.260;2023-07-29T07:36:45;26.20;92.60
52947;DHT22;68773;40.400;17.260;2023-07-29T07:39:10;26.20;92.90
52947;DHT22;68773;40.400;17.260;2023-07-29T07:41:36;26.20;93.10
52947;DHT22;68773;40.400;17.260;2023-07-29T07:44:02;26.30;93.00
52947;DHT22;68773;40.400;17.260;2023-07-29T07:46:28;26.30;93.00
52947;DHT22;68773;40.400;17.260;2023-07-29T07:48:54;26.30;93.00
52947;DHT22;68773;40.400;17.260;2023-07-29T07:51:20;26.30;93.20
52947;DHT22;68773;40.400;17.260;2023-07-29T07:53:46;26.30;92.80
52947;DHT22;68773;40.400;17.260;2023-07-29T07:56:11;26.30;92.60
52947;DHT22;68773;40.400;17.260;2023-07-29T07:58:38;26.30;92.30
52947;DHT22;68773;40.400;17.260;2023-07-29T08:01:07;26.30;92.30
52947;DHT22;68773;40.400;17.260;2023-07-29T08:03:34;26.30;91.30
52947;DHT22;68773;40.400;17.260;2023-07-29T08:06:00;26.30;91.70
52947;DHT22;68773;40.400;17.260;2023-07-29T08:08:26;26.30;91.70
52947;DHT22;68773;40.400;17.260;2023-07-29T08:10:57;26.30;92.10
52947;DHT22;68773;40.400;17.260;2023-07-29T08:13:23;26.40;91.80
52947;DHT22;68773;40.400;17.260;2023-07-29T08:15:51;26.40;91.10
52947;DHT22;68773;40.400;17.260;2023-07-29T08:18:17;26.50;91.00
52947;DHT22;68773;40.400;17.260;2023-07-29T08:20:56;26.50;91.10
52947;DHT22;68773;40.400;17.260;2023-07-29T08:23:27;26.50;90.70
52947;DHT22;68773;40.400;17.260;2023-07-29T08:25:57;26.50;90.60
52947;DHT22;68773;40.400;17.260;2023-07-29T08:28:30;26.60;90.70
52947;DHT22;68773;40.400;17.260;2023-07-29T08:30:56;26.70;90.40
52947;DHT22;68773;40.400;17.260;2023-07-29T08:33:22;26.70;90.90
52947;DHT22;68773;40.400;17.260;2023-07-29T08:35:47;26.80;91.00
52947;DHT22;68773;40.400;17.260;2023-07-29T08:38:13;26.90;90.90
52947;DHT22;68773;40.400;17.260;2023-07-29T08:40:45;27.00;91.00
52947;DHT22;68773;40.400;17.260;2023-07-29T08:43:12;27.00;91.00
52947;DHT22;68773;40.400;17.260;2023-07-29T08:45:40;26.90;90.30
52947;DHT22;68773;40.400;17.260;2023-07-29T08:48:10;27.00;90.60
52947;DHT22;68773;40.400;17.260;2023-07-29T08:50:37;26.90;90.10
52947;DHT22;68773;40.400;17.260;2023-07-29T08:53:05;26.90;89.70
52947;DHT22;68773;40.400;17.260;2023-07-29T08:55:32;26.90;90.10
52947;DHT22;68773;40.400;17.260;2023-07-29T08:57:59;27.00;90.00
52947;DHT22;68773;40.400;17.260;2023-07-29T09:00:26;27.00;88.60
52947;DHT22;68773;40.400;17.260;2023-07-29T09:02:52;27.10;88.70
52947;DHT22;68773;40.400;17.260;2023-07-29T09:05:19;27.20;88.00
52947;DHT22;68773;40.400;17.260;2023-07-29T09:07:46;27.30;87.70
52947;DHT22;68773;40.400;17.260;2023-07-29T09:10:13;27.30;86.90
52947;DHT22;68773;40.400;17.260;2023-07-29T09:12:40;27.40;87.60
52947;DHT22;68773;40.400;17.260;2023-07-29T09:15:06;27.30;87.20
52947;DHT22;68773;40.400;17.260;2023-07-29T09:17:33;27.30;87.70
52947;DHT22;68773;40.400;17.260;2023-07-29T09:19:59;27.40;87.60
52947;DHT22;68773;40.400;17.260;2023-07-29T09:22:27;27.50;87.10
52947;DHT22;68773;40.400;17.260;2023-07-29T09:24:53;27.50;85.90
52947;DHT22;68773;40.400;17.260;2023-07-29T09:27:28;27.50;86.10
52947;DHT22;68773;40.400;17.260;2023-07-29T09:29:57;27.50;85.80
52947;DHT22;68773;40.400;17.260;2023-07-29T09:32:24;27.50;87.00
52947;DHT22;68773;40.400;17.260;2023-07-29T09:34:51;27.50;85.90
52947;DHT22;68773;40.400;17.260;2023-07-29T09:37:25;27.50;85.50
52947;DHT22;68773;40.400;17.260;2023-07-29T09:39:51;27.60;85.80
52947;DHT22;68773;40.400;17.260;2023-07-29T09:42:21;27.60;84.80
52947;DHT22;68773;40.400;17.260;2023-07-29T09:44:49;27.90;85.00
52947;DHT22;68773;40.400;17.260;2023-07-29T09:47:23;27.90;83.60
52947;DHT22;68773;40.400;17.260;2023-07-29T09:49:50;28.00;84.40
52947;DHT22;68773;40.400;17.260;2023-07-29T09:52:17;28.10;83.50
52947;DHT22;68773;40.400;17.260;2023-07-29T09:54:44;28.10;83.40
52947;DHT22;68773;40.400;17.260;2023-07-29T09:57:13;28.20;84.80
52947;DHT22;68773;40.400;17.260;2023-07-29T09:59:40;28.30;84.00
52947;DHT22;68773;40.400;17.260;2023-07-29T10:02:13;28.20;83.30
52947;DHT22;68773;40.400;17.260;2023-07-29T10:04:44;28.20;82.10
52947;DHT22;68773;40.400;17.260;2023-07-29T10:07:11;28.30;82.60
52947;DHT22;68773;40.400;17.260;2023-07-29T10:09:40;28.30;84.30
52947;DHT22;68773;40.400;17.260;2023-07-29T10:12:06;28.40;84.00
52947;DHT22;68773;40.400;17.260;2023-07-29T10:14:33;28.50;83.10
52947;DHT22;68773;40.400;17.260;2023-07-29T10:17:00;28.60;82.80
52947;DHT22;68773;40.400;17.260;2023-07-29T10:19:26;28.80;83.10
52947;DHT22;68773;40.400;17.260;2023-07-29T10:21:54;28.90;82.50
52947;DHT22;68773;40.400;17.260;2023-07-29T10:24:25;28.90;82.50
52947;DHT22;68773;40.400;17.260;2023-07-29T10:26:58;28.70;83.50
52947;DHT22;68773;40.400;17.260;2023-07-29T10:29:31;28.70;84.80
52947;DHT22;68773;40.400;17.260;2023-07-29T10:32:01;28.80;83.90
52947;DHT22;68773;40.400;17.260;2023-07-29T10:34:28;28.70;82.00
52947;DHT22;68773;40.400;17.260;2023-07-29T10:36:55;28.80;83.40
52947;DHT22;68773;40.400;17.260;2023-07-29T10:39:20;28.90;84.00
52947;DHT22;68773;40.400;17.260;2023-07-29T10:42:00;29.00;83.10
52947;DHT22;68773;40.400;17.260;2023-07-29T10:49:46;28.80;83.10
52947;DHT22;68773;40.400;17.260;2023-07-29T10:52:16;28.90;81.80
52947;DHT22;68773;40.400;17.260;2023-07-29T10:54:51;28.90;82.30
52947;DHT22;68773;40.400;17.260;2023-07-29T10:57:34;29.20;82.10
52947;DHT22;68773;40.400;17.260;2023-07-29T11:00:00;29.10;81.50
52947;DHT22;68773;40.400;17.260;2023-07-29T11:02:31;29.00;82.60
52947;DHT22;68773;40.400;17.260;2023-07-29T11:04:57;29.20;82.10
52947;DHT22;68773;40.400;17.260;2023-07-29T11:07:27;29.30;82.00
52947;DHT22;68773;40.400;17.260;2023-07-29T11:10:01;29.60;81.40
52947;DHT22;68773;40.400;17.260;2023-07-29T11:20:17;29.10;83.30
52947;DHT22;68773;40.400;17.260;2023-07-29T11:22:43;29.30;84.80
52947;DHT22;68773;40.400;17.260;2023-07-29T11:25:11;29.30;83.80
52947;DHT22;68773;40.400;17.260;2023-07-29T11:27:38;29.40;83.60
52947;DHT22;68773;40.400;17.260;2023-07-29T11:30:06;29.40;83.70
52947;DHT22;68773;40.400;17.260;2023-07-29T11:32:34;29.40;83.30
52947;DHT22;68773;40.400;17.260;2023-07-29T11:35:11;29.50;82.60
52947;DHT22;68773;40.400;17.260;2023-07-29T11:37:39;29.70;83.30
52947;DHT22;68773;40.400;17.260;2023-07-29T11:40:05;29.80;83.10
52947;DHT22;68773;40.400;17.260;2023-07-29T11:42:37;29.80;82.40
52947;DHT22;68773;40.400;17.260;2023-07-29T11:45:04;29.90;82.20
52947;DHT22;68773;40.400;17.260;2023-07-29T11:47:32;29.80;82.90
52947;DHT22;68773;40.400;17.260;2023-07-29T11:50:02;29.70;82.20
52947;DHT22;68773;40.400;17.260;2023-07-29T11:52:29;29.70;83.20
52947;DHT22;68773;40.400;17.260;2023-07-29T11:54:57;29.70;82.30
52947;DHT22;68773;40.400;17.260;2023-07-29T11:57:23;29.70;82.80
52947;DHT22;68773;40.400;17.260;2023-07-29T11:59:49;29.80;82.50
52947;DHT22;68773;40.400;17.260;2023-07-29T12:02:16;29.80;84.10
52947;DHT22;68773;40.400;17.260;2023-07-29T12:04:44;29.90;84.60
52947;DHT22;68773;40.400;17.260;2023-07-29T12:07:10;29.90;84.90
52947;DHT22;68773;40.400;17.260;2023-07-29T12:09:38;30.10;84.60
52947;DHT22;68773;40.400;17.260;2023-07-29T12:12:05;30.00;82.40
52947;DHT22;68773;40.400;17.260;2023-07-29T12:14:31;30.00;83.40
52947;DHT22;68773;40.400;17.260;2023-07-29T12:17:03;30.20;82.40
52947;DHT22;68773;40.400;17.260;2023-07-29T12:19:37;30.30;81.80
52947;DHT22;68773;40.400;17.260;2023-07-29T12:22:04;30.50;81.30
52947;DHT22;68773;40.400;17.260;2023-07-29T12:24:31;30.60;81.80
52947;DHT22;68773;40.400;17.260;2023-07-29T12:26:58;30.80;82.10
52947;DHT22;68773;40.400;17.260;2023-07-29T12:29:23;30.60;80.60
52947;DHT22;68773;40.400;17.260;2023-07-29T12:32:00;30.80;80.60
52947;DHT22;68773;40.400;17.260;2023-07-29T12:34:27;30.70;82.00
52947;DHT22;68773;40.400;17.260;2023-07-29T12:36:58;30.90;81.10
52947;DHT22;68773;40.400;17.260;2023-07-29T12:39:28;31.00;81.00
52947;DHT22;68773;40.400;17.260;2023-07-29T12:41:56;31.00;80.10
52947;DHT22;68773;40.400;17.260;2023-07-29T12:44:30;30.80;80.40
52947;DHT22;68773;40.400;17.260;2023-07-29T12:46:56;30.80;80.70
52947;DHT22;68773;40.400;17.260;2023-07-29T12:49:22;30.80;80.70
52947;DHT22;68773;40.400;17.260;2023-07-29T12:51:48;30.80;80.40
52947;DHT22;68773;40.400;17.260;2023-07-29T12:54:14;30.80;80.50
52947;DHT22;68773;40.400;17.260;2023-07-29T12:56:40;30.90;79.40
52947;DHT22;68773;40.400;17.260;2023-07-29T12:59:06;30.90;80.00
52947;DHT22;68773;40.400;17.260;2023-07-29T13:01:31;31.00;79.70
52947;DHT22;68773;40.400;17.260;2023-07-29T13:03:57;31.10;80.20
52947;DHT22;68773;40.400;17.260;2023-07-29T13:06:23;31.40;79.30
52947;DHT22;68773;40.400;17.260;2023-07-29T13:08:49;31.20;80.00
52947;DHT22;68773;40.400;17.260;2023-07-29T13:11:16;31.50;79.40
52947;DHT22;68773;40.400;17.260;2023-07-29T13:13:42;31.50;77.70
52947;DHT22;68773;40.400;17.260;2023-07-29T13:16:11;31.50;79.50
52947;DHT22;68773;40.400;17.260;2023-07-29T13:18:37;31.50;79.10
52947;DHT22;68773;40.400;17.260;2023-07-29T13:21:03;31.30;80.10
52947;DHT22;68773;40.400;17.260;2023-07-29T13:23:29;31.50;80.20
52947;DHT22;68773;40.400;17.260;2023-07-29T13:25:55;31.50;80.90
52947;DHT22;68773;40.400;17.260;2023-07-29T13:28:21;31.70;79.40
52947;DHT22;68773;40.400;17.260;2023-07-29T13:30:47;31.80;79.50
52947;DHT22;68773;40.400;17.260;2023-07-29T13:33:13;31.90;78.60
52947;DHT22;68773;40.400;17.260;2023-07-29T13:35:38;31.90;80.10
52947;DHT22;68773;40.400;17.260;2023-07-29T13:38:04;32.10;80.00
52947;DHT22;68773;40.400;17.260;2023-07-29T13:40:30;32.00;79.90
52947;DHT22;68773;40.400;17.260;2023-07-29T13:42:57;31.90;80.10
52947;DHT22;68773;40.400;17.260;2023-07-29T13:45:23;31.90;80.50
52947;DHT22;68773;40.400;17.260;2023-07-29T13:47:49;31.90;80.90
52947;DHT22;68773;40.400;17.260;2023-07-29T13:50:16;32.30;79.50
52947;DHT22;68773;40.400;17.260;2023-07-29T13:52:42;32.30;79.20
52947;DHT22;68773;40.400;17.260;2023-07-29T13:55:08;32.30;79.50
52947;DHT22;68773;40.400;17.260;2023-07-29T13:57:33;32.60;79.40
52947;DHT22;68773;40.400;17.260;2023-07-29T13:59:59;32.40;79.00
52947;DHT22;68773;40.400;17.260;2023-07-29T14:02:25;32.40;79.00
52947;DHT22;68773;40.400;17.260;2023-07-29T14:04:54;32.50;78.90
52947;DHT22;68773;40.400;17.260;2023-07-29T14:07:19;32.40;79.20
52947;DHT22;68773;40.400;17.260;2023-07-29T14:09:45;32.70;79.10
52947;DHT22;68773;40.400;17.260;2023-07-29T14:12:11;32.50;78.60
52947;DHT22;68773;40.400;17.260;2023-07-29T14:14:40;32.60;77.70
52947;DHT22;68773;40.400;17.260;2023-07-29T14:17:06;32.50;77.00
52947;DHT22;68773;40.400;17.260;2023-07-29T14:19:32;32.50;78.10
52947;DHT22;68773;40.400;17.260;2023-07-29T14:21:58;32.70;78.30
52947;DHT22;68773;40.400;17.260;2023-07-29T14:24:24;32.50;78.60
52947;DHT22;68773;40.400;17.260;2023-07-29T14:26:49;32.70;79.10
52947;DHT22;68773;40.400;17.260;2023-07-29T14:29:15;32.50;77.30
52947;DHT22;68773;40.400;17.260;2023-07-29T14:31:41;32.10;78.50
52947;DHT22;68773;40.400;17.260;2023-07-29T14:34:06;32.30;78.20
52947;DHT22;68773;40.400;17.260;2023-07-29T14:36:32;32.50;77.70
52947;DHT22;68773;40.400;17.260;2023-07-29T14:38:58;31.90;77.30
52947;DHT22;68773;40.400;17.260;2023-07-29T14:41:24;32.20;78.00
52947;DHT22;68773;40.400;17.260;2023-07-29T14:43:49;32.70;77.50
52947;DHT22;68773;40.400;17.260;2023-07-29T14:46:15;31.90;79.20
52947;DHT22;68773;40.400;17.260;2023-07-29T14:48:41;32.00;80.20
52947;DHT22;68773;40.400;17.260;2023-07-29T14:51:06;31.60;78.70
52947;DHT22;68773;40.400;17.260;2023-07-29T14:53:32;32.20;78.40
52947;DHT22;68773;40.400;17.260;2023-07-29T14:55:58;32.10;78.40
52947;DHT22;68773;40.400;17.260;2023-07-29T14:58:24;31.40;75.70
52947;DHT22;68773;40.400;17.260;2023-07-29T15:00:53;31.30;77.50
52947;DHT22;68773;40.400;17.260;2023-07-29T15:03:19;31.60;77.50
52947;DHT22;68773;40.400;17.260;2023-07-29T15:05:45;31.90;77.10
52947;DHT22;68773;40.400;17.260;2023-07-29T15:08:10;32.10;75.60
52947;DHT22;68773;40.400;17.260;2023-07-29T15:10:36;32.40;75.50
52947;DHT22;68773;40.400;17.260;2023-07-29T15:13:02;32.60;72.80
52947;DHT22;68773;40.400;17.260;2023-07-29T15:15:28;32.30;73.30
52947;DHT22;68773;40.400;17.260;2023-07-29T15:17:54;32.50;73.30
52947;DHT22;68773;40.400;17.260;2023-07-29T15:20:19;32.10;71.90
52947;DHT22;68773;40.400;17.260;2023-07-29T15:22:45;32.00;73.50
52947;DHT22;68773;40.400;17.260;2023-07-29T15:25:11;31.80;73.40
52947;DHT22;68773;40.400;17.260;2023-07-29T15:27:38;31.80;73.60
52947;DHT22;68773;40.400;17.260;2023-07-29T15:30:09;32.20;75.90
52947;DHT22;68773;40.400;17.260;2023-07-29T15:32:37;32.50;71.40
52947;DHT22;68773;40.400;17.260;2023-07-29T15:35:03;32.90;71.10